Ruth Borchard — V7AL8 — position and weather

sailwx.info

Track history (hours):
 
Tides and Currents Weather Stations Pressure Air Temp Water Temp Dewpoint Dewpoint Depression Visibility Wind Speed Wind Dir Waves Ship Positions

Ruth Borchard

Last reported at 2018-May-28 00:52 UTC. Time now 2018-May-28 01:20 UTC.
Position N 52°01' W 005°54'.

Length 159 m; draft 7 m.

Type: Ship (hazmat cat A). MMSI: 538005024.

Date/timePositionNaut miles runAvg speedWind from/ knotsBaromVisibWave heightAir tempDewpointWater temp
2018-May-28 00:52N 52°01' W 005°54'720.4
2018-May-28 00:30N 52°08' W 005°54'1020.5
2018-May-28 00:00N 52°18' W 005°53'1020.4
2018-May-27 23:30N 52°29' W 005°53'1719.9
2018-May-27 22:40N 52°45' W 005°53'619.5
2018-May-27 22:22N 52°51' W 005°53'719.4
2018-May-27 22:00N 52°58' W 005°53'918.8
2018-May-27 21:30N 53°07' W 005°56'917.8
2018-May-27 21:00N 53°16' W 006°01'612.8
2018-May-27 20:30N 53°21' W 006°08'3 5.2
2018-May-27 20:00N 53°21' W 006°13'0 0.0
2018-May-27 19:24N 53°21' W 006°13'0 0.0
2018-May-27 18:54N 53°21' W 006°13'0 0.0
2018-May-27 18:21N 53°21' W 006°13'0 0.0
2018-May-27 17:36N 53°21' W 006°13'0 0.0
2018-May-27 17:06N 53°21' W 006°13'0 0.0
2018-May-27 16:36N 53°21' W 006°13'0 0.0
2018-May-27 16:06N 53°21' W 006°13'0 0.0
2018-May-27 14:12N 53°21' W 006°13'0 0.0
2018-May-27 13:06N 53°21' W 006°13'0 0.0
2018-May-27 12:36N 53°21' W 006°13'0 0.1
2018-May-27 12:30N 53°21' W 006°13'0 0.0
2018-May-27 08:12N 53°21' W 006°13'0 0.0
2018-May-27 07:42N 53°21' W 006°13'0 0.0
2018-May-27 07:12N 53°21' W 006°13'0 0.0
2018-May-27 07:00N 53°21' W 006°13'0 0.0
2018-May-27 04:42N 53°21' W 006°13'0 0.0
2018-May-27 04:21N 53°21' W 006°13'0 0.0
2018-May-27 04:00N 53°21' W 006°13'2 4.1
2018-May-27 03:28N 53°21' W 006°09'4 7.6
2018-May-27 03:00N 53°21' W 006°03'510.3
2018-May-27 02:30N 53°22' W 005°55'3 6.6
2018-May-27 01:59N 53°23' W 005°50'816.8
2018-May-27 01:30N 53°25' W 005°37'2317.5
2018-May-27 00:11N 53°31' W 004°59'718.7
2018-May-26 23:50N 53°33' W 004°48'718.8
2018-May-26 23:29N 53°34' W 004°37'918.7
2018-May-26 22:59N 53°34' W 004°22'918.1
2018-May-26 22:30N 53°34' W 004°07'917.3
2018-May-26 22:00N 53°34' W 003°52'916.7
2018-May-26 21:29N 53°33' W 003°38'816.3
2018-May-26 21:00N 53°33' W 003°25'713.3
2018-May-26 20:30N 53°31' W 003°14'612.0
2018-May-26 20:00N 53°29' W 003°04'3 5.3
2018-May-26 19:30N 53°27' W 003°01'0 0.0
2018-May-26 19:00N 53°27' W 003°01'1 1.1
2018-May-26 18:30N 53°28' W 003°01'0 0.1
2018-May-26 18:00N 53°28' W 003°01'0 0.0
2018-May-26 17:30N 53°28' W 003°01'0 0.0
2018-May-26 17:00N 53°28' W 003°01'0 0.0
2018-May-26 16:27N 53°28' W 003°01'0 0.0
2018-May-26 16:00N 53°28' W 003°01'0 0.0
2018-May-26 15:24N 53°28' W 003°01'0 0.0
2018-May-26 15:00N 53°28' W 003°01'0 0.0
2018-May-26 14:24N 53°28' W 003°01'0 0.0
2018-May-26 14:00N 53°28' W 003°01'0 0.0
2018-May-26 13:30N 53°28' W 003°01'0 0.0
2018-May-26 13:00N 53°28' W 003°01'0 0.0
2018-May-26 12:30N 53°28' W 003°01'0 0.0
2018-May-26 11:57N 53°28' W 003°01'0 0.0
2018-May-26 11:30N 53°28' W 003°01'0 0.0
2018-May-26 11:00N 53°28' W 003°01'0 0.0
2018-May-26 10:24N 53°28' W 003°01'0 0.0
2018-May-26 09:57N 53°28' W 003°01'0 0.0
2018-May-26 09:27N 53°28' W 003°01'0 0.0
2018-May-26 08:57N 53°28' W 003°01'0 0.0
2018-May-26 08:30N 53°28' W 003°01'0 0.0
2018-May-26 08:00N 53°28' W 003°01'0 0.0
2018-May-26 07:30N 53°28' W 003°01'0 0.0
2018-May-26 07:00N 53°28' W 003°01'0 0.0
2018-May-26 06:30N 53°28' W 003°01'1 0.7
2018-May-26 05:30N 53°27' W 003°01'1 1.7
2018-May-26 05:00N 53°27' W 003°02'510.5
2018-May-26 04:30N 53°31' W 003°08'510.7
2018-May-26 04:00N 53°31' W 003°16'4 7.5
2018-May-26 03:30N 53°31' W 003°23'3 5.3
2018-May-26 03:00N 53°31' W 003°27'611.7
2018-May-26 02:30N 53°31' W 003°37'611.4
2018-May-26 02:00N 53°31' W 003°47'511.0
2018-May-26 01:30N 53°30' W 003°56'611.1
2018-May-26 01:00N 53°30' W 004°05'12411.8
2018-May-25 14:29N 51°43' W 005°49'613.1
2018-May-25 14:00N 51°37' W 005°51'612.8
2018-May-25 13:30N 51°31' W 005°54'612.3
2018-May-25 12:59N 51°25' W 005°57'43612.8
2018-May-24 02:50N 44°28' W 009°11'19112.3
2018-May-23 11:23N 41°18' W 008°51'513.6
2018-May-23 11:00N 41°13' W 008°48'5 9.5
2018-May-23 10:30N 41°11' W 008°42'1 1.2
2018-May-23 09:58N 41°11' W 008°42'0 0.0
2018-May-23 09:28N 41°11' W 008°42'0 0.0
2018-May-23 08:58N 41°11' W 008°42'0 0.0
2018-May-23 08:28N 41°11' W 008°42'0 0.0
2018-May-23 07:58N 41°11' W 008°42'0 0.0
2018-May-23 07:28N 41°11' W 008°42'0 0.0
2018-May-23 06:58N 41°11' W 008°42'0 0.0
2018-May-23 06:28N 41°11' W 008°42'0 0.0
2018-May-23 05:58N 41°11' W 008°42'0 0.0
2018-May-23 05:30N 41°11' W 008°42'2 4.8
2018-May-23 05:00N 41°09' W 008°44'714.4
2018-May-23 04:30N 41°03' W 008°48'9714.9
2018-May-22 22:00N 39°34' W 009°39'713.8
2018-May-22 21:30N 39°28' W 009°43'713.9
2018-May-22 21:00N 39°21' W 009°46'714.4
2018-May-22 20:30N 39°14' W 009°47'714.3
2018-May-22 20:00N 39°07' W 009°49'714.2
2018-May-22 19:30N 39°00' W 009°50'714.0
2018-May-22 19:00N 38°53' W 009°51'714.2
2018-May-22 18:30N 38°46' W 009°51'714.2
2018-May-22 18:00N 38°39' W 009°50'714.1
2018-May-22 17:30N 38°32' W 009°48'714.3
2018-May-22 17:00N 38°25' W 009°45'714.2
2018-May-22 16:30N 38°19' W 009°43'714.1
2018-May-22 16:00N 38°12' W 009°42'714.3
2018-May-22 15:30N 38°05' W 009°40'714.5
2018-May-22 15:00N 37°58' W 009°38'714.4
2018-May-22 14:31N 37°51' W 009°35'714.4
2018-May-22 14:00N 37°43' W 009°33'714.3
2018-May-22 13:30N 37°37' W 009°31'714.4
2018-May-22 13:00N 37°29' W 009°29'4714.1
2018-May-22 09:41N 36°45' W 009°09'314.1
2018-May-22 09:28N 36°44' W 009°06'713.8
2018-May-22 08:59N 36°42' W 008°58'713.5
2018-May-22 08:30N 36°40' W 008°50'1313.7
2018-May-22 07:31N 36°36' W 008°34'113.4
2018-May-22 07:29N 36°36' W 008°34'36613.9
2018-May-21 05:02N 37°17' W 000°58'116.1
2018-May-21 05:00N 37°17' W 000°58'816.0
2018-May-21 04:30N 37°22' W 000°50'815.6
2018-May-21 04:00N 37°28' W 000°43'815.2
2018-May-21 03:30N 37°33' W 000°36'714.8
2018-May-21 03:00N 37°39' W 000°30'815.0
2018-May-21 02:30N 37°45' W 000°25'915.8
2018-May-21 01:56N 37°53' W 000°19'715.8
2018-May-21 01:30N 37°58' W 000°15'208 8.4
2018-May-20 00:45N 40°22' E 002°59'17714.7
2018-May-19 12:44N 40°57' E 006°48'4114.7
2018-May-19 09:54N 41°05' E 007°42'27214.2
2018-May-18 14:44N 40°37' E 013°39'314.6
2018-May-18 14:30N 40°36' E 013°44'714.5
2018-May-18 14:00N 40°35' E 013°53'714.6
2018-May-18 13:30N 40°33' E 014°02'1314.5
2018-May-18 12:35N 40°32' E 014°20'114.9
2018-May-18 12:30N 40°33' E 014°21'714.8
2018-May-18 12:00N 40°35' E 014°30'  
Track history (hours):
 
Tides and Currents Weather Stations Pressure Air Temp Water Temp Dewpoint Dewpoint Depression Visibility Wind Speed Wind Dir Waves Ship Positions

Ruth Borchard

Last reported at 2018-May-28 00:52 UTC. Time now 2018-May-28 01:20 UTC.
Position N 52°01' W 005°54'.

Length 159 m; draft 7 m.

Type: Ship (hazmat cat A). MMSI: 538005024.

Date/timePositionNaut miles runAvg speedWind from/ knotsBaromVisibWave heightAir tempDewpointWater temp
2018-May-28 00:52N 52°01' W 005°54'720.4
2018-May-28 00:30N 52°08' W 005°54'1020.5
2018-May-28 00:00N 52°18' W 005°53'1020.4
2018-May-27 23:30N 52°29' W 005°53'1719.9
2018-May-27 22:40N 52°45' W 005°53'619.5
2018-May-27 22:22N 52°51' W 005°53'719.4
2018-May-27 22:00N 52°58' W 005°53'918.8
2018-May-27 21:30N 53°07' W 005°56'917.8
2018-May-27 21:00N 53°16' W 006°01'612.8
2018-May-27 20:30N 53°21' W 006°08'3 5.2
2018-May-27 20:00N 53°21' W 006°13'0 0.0
2018-May-27 19:24N 53°21' W 006°13'0 0.0
2018-May-27 18:54N 53°21' W 006°13'0 0.0
2018-May-27 18:21N 53°21' W 006°13'0 0.0
2018-May-27 17:36N 53°21' W 006°13'0 0.0
2018-May-27 17:06N 53°21' W 006°13'0 0.0
2018-May-27 16:36N 53°21' W 006°13'0 0.0
2018-May-27 16:06N 53°21' W 006°13'0 0.0
2018-May-27 14:12N 53°21' W 006°13'0 0.0
2018-May-27 13:06N 53°21' W 006°13'0 0.0
2018-May-27 12:36N 53°21' W 006°13'0 0.1
2018-May-27 12:30N 53°21' W 006°13'0 0.0
2018-May-27 08:12N 53°21' W 006°13'0 0.0
2018-May-27 07:42N 53°21' W 006°13'0 0.0
2018-May-27 07:12N 53°21' W 006°13'0 0.0
2018-May-27 07:00N 53°21' W 006°13'0 0.0
2018-May-27 04:42N 53°21' W 006°13'0 0.0
2018-May-27 04:21N 53°21' W 006°13'0 0.0
2018-May-27 04:00N 53°21' W 006°13'2 4.1
2018-May-27 03:28N 53°21' W 006°09'4 7.6
2018-May-27 03:00N 53°21' W 006°03'510.3
2018-May-27 02:30N 53°22' W 005°55'3 6.6
2018-May-27 01:59N 53°23' W 005°50'816.8
2018-May-27 01:30N 53°25' W 005°37'2317.5
2018-May-27 00:11N 53°31' W 004°59'718.7
2018-May-26 23:50N 53°33' W 004°48'718.8
2018-May-26 23:29N 53°34' W 004°37'918.7
2018-May-26 22:59N 53°34' W 004°22'918.1
2018-May-26 22:30N 53°34' W 004°07'917.3
2018-May-26 22:00N 53°34' W 003°52'916.7
2018-May-26 21:29N 53°33' W 003°38'816.3
2018-May-26 21:00N 53°33' W 003°25'713.3
2018-May-26 20:30N 53°31' W 003°14'612.0
2018-May-26 20:00N 53°29' W 003°04'3 5.3
2018-May-26 19:30N 53°27' W 003°01'0 0.0
2018-May-26 19:00N 53°27' W 003°01'1 1.1
2018-May-26 18:30N 53°28' W 003°01'0 0.1
2018-May-26 18:00N 53°28' W 003°01'0 0.0
2018-May-26 17:30N 53°28' W 003°01'0 0.0
2018-May-26 17:00N 53°28' W 003°01'0 0.0
2018-May-26 16:27N 53°28' W 003°01'0 0.0
2018-May-26 16:00N 53°28' W 003°01'0 0.0
2018-May-26 15:24N 53°28' W 003°01'0 0.0
2018-May-26 15:00N 53°28' W 003°01'0 0.0
2018-May-26 14:24N 53°28' W 003°01'0 0.0
2018-May-26 14:00N 53°28' W 003°01'0 0.0
2018-May-26 13:30N 53°28' W 003°01'0 0.0
2018-May-26 13:00N 53°28' W 003°01'0 0.0
2018-May-26 12:30N 53°28' W 003°01'0 0.0
2018-May-26 11:57N 53°28' W 003°01'0 0.0
2018-May-26 11:30N 53°28' W 003°01'0 0.0
2018-May-26 11:00N 53°28' W 003°01'0 0.0
2018-May-26 10:24N 53°28' W 003°01'0 0.0
2018-May-26 09:57N 53°28' W 003°01'0 0.0
2018-May-26 09:27N 53°28' W 003°01'0 0.0
2018-May-26 08:57N 53°28' W 003°01'0 0.0
2018-May-26 08:30N 53°28' W 003°01'0 0.0
2018-May-26 08:00N 53°28' W 003°01'0 0.0
2018-May-26 07:30N 53°28' W 003°01'0 0.0
2018-May-26 07:00N 53°28' W 003°01'0 0.0
2018-May-26 06:30N 53°28' W 003°01'1 0.7
2018-May-26 05:30N 53°27' W 003°01'1 1.7
2018-May-26 05:00N 53°27' W 003°02'510.5
2018-May-26 04:30N 53°31' W 003°08'510.7
2018-May-26 04:00N 53°31' W 003°16'4 7.5
2018-May-26 03:30N 53°31' W 003°23'3 5.3
2018-May-26 03:00N 53°31' W 003°27'611.7
2018-May-26 02:30N 53°31' W 003°37'611.4
2018-May-26 02:00N 53°31' W 003°47'511.0
2018-May-26 01:30N 53°30' W 003°56'611.1
2018-May-26 01:00N 53°30' W 004°05'12411.8
2018-May-25 14:29N 51°43' W 005°49'613.1
2018-May-25 14:00N 51°37' W 005°51'612.8
2018-May-25 13:30N 51°31' W 005°54'612.3
2018-May-25 12:59N 51°25' W 005°57'43612.8
2018-May-24 02:50N 44°28' W 009°11'19112.3
2018-May-23 11:23N 41°18' W 008°51'513.6
2018-May-23 11:00N 41°13' W 008°48'5 9.5
2018-May-23 10:30N 41°11' W 008°42'1 1.2
2018-May-23 09:58N 41°11' W 008°42'0 0.0
2018-May-23 09:28N 41°11' W 008°42'0 0.0
2018-May-23 08:58N 41°11' W 008°42'0 0.0
2018-May-23 08:28N 41°11' W 008°42'0 0.0
2018-May-23 07:58N 41°11' W 008°42'0 0.0
2018-May-23 07:28N 41°11' W 008°42'0 0.0
2018-May-23 06:58N 41°11' W 008°42'0 0.0
2018-May-23 06:28N 41°11' W 008°42'0 0.0
2018-May-23 05:58N 41°11' W 008°42'0 0.0
2018-May-23 05:30N 41°11' W 008°42'2 4.8
2018-May-23 05:00N 41°09' W 008°44'714.4
2018-May-23 04:30N 41°03' W 008°48'9714.9
2018-May-22 22:00N 39°34' W 009°39'713.8
2018-May-22 21:30N 39°28' W 009°43'713.9
2018-May-22 21:00N 39°21' W 009°46'714.4
2018-May-22 20:30N 39°14' W 009°47'714.3
2018-May-22 20:00N 39°07' W 009°49'714.2
2018-May-22 19:30N 39°00' W 009°50'714.0
2018-May-22 19:00N 38°53' W 009°51'714.2
2018-May-22 18:30N 38°46' W 009°51'714.2
2018-May-22 18:00N 38°39' W 009°50'714.1
2018-May-22 17:30N 38°32' W 009°48'714.3
2018-May-22 17:00N 38°25' W 009°45'714.2
2018-May-22 16:30N 38°19' W 009°43'714.1
2018-May-22 16:00N 38°12' W 009°42'714.3
2018-May-22 15:30N 38°05' W 009°40'714.5
2018-May-22 15:00N 37°58' W 009°38'714.4
2018-May-22 14:31N 37°51' W 009°35'714.4
2018-May-22 14:00N 37°43' W 009°33'714.3
2018-May-22 13:30N 37°37' W 009°31'714.4
2018-May-22 13:00N 37°29' W 009°29'4714.1
2018-May-22 09:41N 36°45' W 009°09'314.1
2018-May-22 09:28N 36°44' W 009°06'713.8
2018-May-22 08:59N 36°42' W 008°58'713.5
2018-May-22 08:30N 36°40' W 008°50'1313.7
2018-May-22 07:31N 36°36' W 008°34'113.4
2018-May-22 07:29N 36°36' W 008°34'36613.9
2018-May-21 05:02N 37°17' W 000°58'116.1
2018-May-21 05:00N 37°17' W 000°58'816.0
2018-May-21 04:30N 37°22' W 000°50'815.6
2018-May-21 04:00N 37°28' W 000°43'815.2
2018-May-21 03:30N 37°33' W 000°36'714.8
2018-May-21 03:00N 37°39' W 000°30'815.0
2018-May-21 02:30N 37°45' W 000°25'915.8
2018-May-21 01:56N 37°53' W 000°19'715.8
2018-May-21 01:30N 37°58' W 000°15'208 8.4
2018-May-20 00:45N 40°22' E 002°59'17714.7
2018-May-19 12:44N 40°57' E 006°48'4114.7
2018-May-19 09:54N 41°05' E 007°42'27214.2
2018-May-18 14:44N 40°37' E 013°39'314.6
2018-May-18 14:30N 40°36' E 013°44'714.5
2018-May-18 14:00N 40°35' E 013°53'714.6
2018-May-18 13:30N 40°33' E 014°02'1314.5
2018-May-18 12:35N 40°32' E 014°20'114.9
2018-May-18 12:30N 40°33' E 014°21'714.8
2018-May-18 12:00N 40°35' E 014°30'  

Dump ship's entire track history